createdAt,value
2018-02-26T00:00:29.187Z,1023.40
2018-02-26T00:01:04.326Z,1023.39
2018-02-26T00:01:40.620Z,1023.36
2018-02-26T00:02:16.239Z,1023.39
2018-02-26T00:02:51.859Z,1023.39
2018-02-26T00:03:27.203Z,1023.39
2018-02-26T00:04:02.311Z,1023.42
2018-02-26T00:04:38.149Z,1023.41
2018-02-26T00:05:13.729Z,1023.42
2018-02-26T00:05:49.417Z,1023.39
2018-02-26T00:06:24.640Z,1023.43
2018-02-26T00:07:00.163Z,1023.45
2018-02-26T00:07:35.478Z,1023.44
2018-02-26T00:08:10.574Z,1023.46
2018-02-26T00:08:45.935Z,1023.49
2018-02-26T00:09:21.671Z,1023.45
2018-02-26T00:09:56.963Z,1023.49
2018-02-26T00:10:32.390Z,1023.47
2018-02-26T00:11:10.351Z,1023.46
2018-02-26T00:11:45.756Z,1023.44
2018-02-26T00:12:21.161Z,1023.44
2018-02-26T00:12:56.569Z,1023.44
2018-02-26T00:13:31.725Z,1023.45
2018-02-26T00:14:07.037Z,1023.46
2018-02-26T00:14:43.363Z,1023.48
2018-02-26T00:15:18.767Z,1023.47
2018-02-26T00:15:57.620Z,1023.47
2018-02-26T00:16:34.851Z,1023.42
2018-02-26T00:17:10.046Z,1023.48
2018-02-26T00:17:46.577Z,1023.46
2018-02-26T00:18:22.219Z,1023.39
2018-02-26T00:18:57.742Z,1023.42
2018-02-26T00:19:32.996Z,1023.46
2018-02-26T00:20:08.296Z,1023.45
2018-02-26T00:20:43.551Z,1023.44
2018-02-26T00:21:19.150Z,1023.45
2018-02-26T00:21:57.694Z,1023.49
2018-02-26T00:22:33.013Z,1023.45
2018-02-26T00:23:08.218Z,1023.36
2018-02-26T00:23:43.791Z,1023.44
2018-02-26T00:24:19.100Z,1023.43
2018-02-26T00:24:54.121Z,1023.43
2018-02-26T00:25:29.471Z,1023.42
2018-02-26T00:26:08.007Z,1023.41
2018-02-26T00:26:43.551Z,1023.37
2018-02-26T00:27:19.963Z,1023.40
2018-02-26T00:27:55.431Z,1023.33
2018-02-26T00:28:30.894Z,1023.37
2018-02-26T00:29:06.210Z,1023.37
2018-02-26T00:29:41.551Z,1023.37
2018-02-26T00:30:17.152Z,1023.36
2018-02-26T00:30:53.585Z,1023.41
2018-02-26T00:31:29.515Z,1023.38
2018-02-26T00:32:05.320Z,1023.40
2018-02-26T00:32:40.956Z,1023.37
2018-02-26T00:33:16.313Z,1023.44
2018-02-26T00:33:51.521Z,1023.38
2018-02-26T00:34:26.495Z,1023.39
2018-02-26T00:35:01.911Z,1023.40
2018-02-26T00:35:37.745Z,1023.39
2018-02-26T00:36:13.052Z,1023.37
2018-02-26T00:36:48.286Z,1023.32
2018-02-26T00:37:23.766Z,1023.35
2018-02-26T00:37:59.054Z,1023.33
2018-02-26T00:38:34.297Z,1023.37
2018-02-26T00:39:09.615Z,1023.33
2018-02-26T00:39:44.957Z,1023.30
2018-02-26T00:40:20.473Z,1023.31
2018-02-26T00:40:55.873Z,1023.35
2018-02-26T00:41:34.184Z,1023.32
2018-02-26T00:42:10.870Z,1023.35
2018-02-26T00:42:46.295Z,1023.33
2018-02-26T00:43:22.819Z,1023.32
2018-02-26T00:43:58.480Z,1023.33
2018-02-26T00:44:33.988Z,1023.37
2018-02-26T00:45:13.417Z,1023.34
2018-02-26T00:45:55.441Z,1023.34
2018-02-26T00:46:30.812Z,1023.28
2018-02-26T00:47:08.124Z,1023.34
2018-02-26T00:47:43.535Z,1023.33
2018-02-26T00:48:18.842Z,1023.37
2018-02-26T00:48:54.337Z,1023.33
2018-02-26T00:49:29.537Z,1023.35
2018-02-26T00:50:04.543Z,1023.35
2018-02-26T00:50:41.366Z,1023.32
2018-02-26T00:51:20.209Z,1023.37
2018-02-26T00:51:55.597Z,1023.33
2018-02-26T00:52:30.913Z,1023.33
2018-02-26T00:53:06.512Z,1023.35
2018-02-26T00:53:45.427Z,1023.36
2018-02-26T00:54:20.591Z,1023.37
2018-02-26T00:54:55.896Z,1023.35
2018-02-26T00:55:31.322Z,1023.35
2018-02-26T00:56:06.320Z,1023.34
2018-02-26T00:56:44.657Z,1023.44
2018-02-26T00:57:20.288Z,1023.38
2018-02-26T00:57:55.666Z,1023.39
2018-02-26T00:58:31.086Z,1023.40
2018-02-26T00:59:09.199Z,1023.47
2018-02-26T00:59:44.525Z,1023.42
2018-02-26T01:00:19.943Z,1023.39
2018-02-26T01:00:55.540Z,1023.40
2018-02-26T01:01:30.873Z,1023.43
2018-02-26T01:02:06.695Z,1023.43
2018-02-26T01:02:42.332Z,1023.42
2018-02-26T01:03:21.725Z,1023.44
2018-02-26T01:03:59.749Z,1023.46
2018-02-26T01:04:37.889Z,1023.45
2018-02-26T01:05:16.167Z,1023.43
2018-02-26T01:05:51.610Z,1023.47
2018-02-26T01:06:26.854Z,1023.46
2018-02-26T01:07:02.616Z,1023.50
2018-02-26T01:07:37.872Z,1023.47
2018-02-26T01:08:12.959Z,1023.43
2018-02-26T01:08:48.199Z,1023.52
2018-02-26T01:09:23.263Z,1023.51
2018-02-26T01:09:58.676Z,1023.49
2018-02-26T01:10:34.996Z,1023.45
2018-02-26T01:11:10.633Z,1023.43
2018-02-26T01:11:46.051Z,1023.47
2018-02-26T01:12:21.460Z,1023.49
2018-02-26T01:12:57.155Z,1023.50
2018-02-26T01:13:34.780Z,1023.47
2018-02-26T01:14:12.544Z,1023.52
2018-02-26T01:14:48.123Z,1023.48
2018-02-26T01:15:23.445Z,1023.51
2018-02-26T01:16:02.333Z,1023.53
2018-02-26T01:16:39.976Z,1023.49
2018-02-26T01:17:15.340Z,1023.45
2018-02-26T01:17:50.649Z,1023.53
2018-02-26T01:18:27.176Z,1023.51
2018-02-26T01:19:02.550Z,1023.56
2018-02-26T01:19:37.898Z,1023.55
2018-02-26T01:20:13.187Z,1023.54
2018-02-26T01:20:48.638Z,1023.55
2018-02-26T01:21:26.750Z,1023.50
2018-02-26T01:22:02.280Z,1023.51
2018-02-26T01:22:37.716Z,1023.51
2018-02-26T01:23:13.422Z,1023.54
2018-02-26T01:23:49.948Z,1023.46
2018-02-26T01:24:25.584Z,1023.48
2018-02-26T01:25:03.264Z,1023.47
2018-02-26T01:25:39.141Z,1023.50
2018-02-26T01:26:15.957Z,1023.52
2018-02-26T01:26:54.384Z,1023.52
2018-02-26T01:27:29.815Z,1023.48
2018-02-26T01:28:09.985Z,1023.47
2018-02-26T01:28:45.323Z,1023.42
2018-02-26T01:29:20.855Z,1023.44
2018-02-26T01:29:56.106Z,1023.47
2018-02-26T01:30:31.508Z,1023.43
2018-02-26T01:31:11.906Z,1023.39
2018-02-26T01:31:47.126Z,1023.42
2018-02-26T01:32:24.464Z,1023.44
2018-02-26T01:32:59.658Z,1023.42
2018-02-26T01:33:39.355Z,1023.42
2018-02-26T01:34:14.750Z,1023.43
2018-02-26T01:34:50.099Z,1023.44
2018-02-26T01:35:25.436Z,1023.44
2018-02-26T01:36:00.732Z,1023.43
2018-02-26T01:36:36.357Z,1023.43
2018-02-26T01:37:11.541Z,1023.39
2018-02-26T01:37:49.350Z,1023.38
2018-02-26T01:38:25.763Z,1023.40
2018-02-26T01:39:01.346Z,1023.39
2018-02-26T01:39:36.824Z,1023.38
2018-02-26T01:40:12.122Z,1023.41
2018-02-26T01:40:50.528Z,1023.38
2018-02-26T01:41:25.760Z,1023.41
2018-02-26T01:42:01.052Z,1023.32
2018-02-26T01:42:39.285Z,1023.36
2018-02-26T01:43:14.891Z,1023.38
2018-02-26T01:43:50.336Z,1023.41
2018-02-26T01:44:26.037Z,1023.36
2018-02-26T01:45:04.274Z,1023.35
2018-02-26T01:48:18.622Z,1023.43
2018-02-26T01:48:54.324Z,1023.41
2018-02-26T01:49:29.718Z,1023.39
2018-02-26T01:50:05.830Z,1023.43
2018-02-26T01:50:44.771Z,1023.40
2018-02-26T01:51:20.170Z,1023.34
2018-02-26T01:51:55.347Z,1023.38
2018-02-26T01:52:31.387Z,1023.34
2018-02-26T01:53:06.964Z,1023.35
2018-02-26T01:53:42.298Z,1023.33
2018-02-26T01:54:17.483Z,1023.38
2018-02-26T01:54:52.839Z,1023.36
2018-02-26T01:55:28.246Z,1023.33
2018-02-26T01:56:04.131Z,1023.37
2018-02-26T01:56:40.138Z,1023.39
2018-02-26T01:57:18.612Z,1023.34
2018-02-26T01:57:53.948Z,1023.33
2018-02-26T01:58:30.843Z,1023.42
2018-02-26T01:59:06.210Z,1023.44
2018-02-26T01:59:41.898Z,1023.41
2018-02-26T02:00:17.137Z,1023.40
2018-02-26T02:00:53.345Z,1023.39
2018-02-26T02:01:28.834Z,1023.37
2018-02-26T02:02:07.513Z,1023.36
2018-02-26T02:02:44.874Z,1023.37
2018-02-26T02:03:20.205Z,1023.38
2018-02-26T02:03:58.581Z,1023.38
2018-02-26T02:04:34.001Z,1023.33
2018-02-26T02:05:14.965Z,1023.36
2018-02-26T02:05:50.354Z,1023.34
2018-02-26T02:06:25.584Z,1023.34
2018-02-26T02:07:01.059Z,1023.35
2018-02-26T02:07:36.469Z,1023.35
2018-02-26T02:08:14.747Z,1023.35
2018-02-26T02:08:53.305Z,1023.37
2018-02-26T02:09:28.702Z,1023.37
2018-02-26T02:10:07.504Z,1023.36
2018-02-26T02:10:45.560Z,1023.37
2018-02-26T02:11:24.161Z,1023.35
2018-02-26T02:11:59.354Z,1023.38
2018-02-26T02:12:37.814Z,1023.39
2018-02-26T02:13:12.969Z,1023.36
2018-02-26T02:13:48.403Z,1023.37
2018-02-26T02:14:23.766Z,1023.37
2018-02-26T02:14:59.304Z,1023.34
2018-02-26T02:15:34.613Z,1023.35
2018-02-26T02:16:13.055Z,1023.37
2018-02-26T02:16:48.502Z,1023.34
2018-02-26T02:17:23.914Z,1023.35
2018-02-26T02:18:02.604Z,1023.37
2018-02-26T02:18:37.930Z,1023.31
2018-02-26T02:19:13.234Z,1023.34
2018-02-26T02:19:48.669Z,1023.34
2018-02-26T02:20:24.107Z,1023.31
2018-02-26T02:20:59.519Z,1023.32
2018-02-26T02:21:34.866Z,1023.34
2018-02-26T02:22:10.068Z,1023.36
2018-02-26T02:22:48.580Z,1023.36
2018-02-26T02:23:23.930Z,1023.31
2018-02-26T02:24:02.120Z,1023.34
2018-02-26T02:24:37.563Z,1023.35
2018-02-26T02:25:13.080Z,1023.31
2018-02-26T02:25:48.840Z,1023.28
2018-02-26T02:26:26.981Z,1023.34
2018-02-26T02:27:02.401Z,1023.37
2018-02-26T02:27:40.424Z,1023.35
2018-02-26T02:28:15.742Z,1023.35
2018-02-26T02:28:55.602Z,1023.32
2018-02-26T02:29:31.113Z,1023.31
2018-02-26T02:30:06.330Z,1023.35
2018-02-26T02:30:44.190Z,1023.30
2018-02-26T02:31:19.578Z,1023.33
2018-02-26T02:32:01.737Z,1023.35
2018-02-26T02:32:39.889Z,1023.29
2018-02-26T02:33:15.423Z,1023.27
2018-02-26T02:33:52.624Z,1023.28
2018-02-26T02:34:28.036Z,1023.33
2018-02-26T02:35:03.461Z,1023.33
2018-02-26T02:35:40.123Z,1023.28
2018-02-26T02:36:15.249Z,1023.32
2018-02-26T02:36:52.755Z,1023.36
2018-02-26T02:37:28.092Z,1023.30
2018-02-26T02:38:04.218Z,1023.32
2018-02-26T02:38:39.624Z,1023.27
2018-02-26T02:39:14.839Z,1023.29
2018-02-26T02:39:50.154Z,1023.33
2018-02-26T02:40:26.910Z,1023.32
2018-02-26T02:41:02.214Z,1023.33
2018-02-26T02:41:38.060Z,1023.35
2018-02-26T02:42:16.578Z,1023.34
2018-02-26T02:42:51.749Z,1023.35
2018-02-26T02:43:28.995Z,1023.39
2018-02-26T02:44:05.617Z,1023.36
2018-02-26T02:44:41.066Z,1023.39
2018-02-26T02:45:17.408Z,1023.41
2018-02-26T02:45:55.346Z,1023.38
2018-02-26T02:46:30.660Z,1023.35
2018-02-26T02:47:06.047Z,1023.36
2018-02-26T02:47:41.869Z,1023.37
2018-02-26T02:48:17.052Z,1023.38
2018-02-26T02:48:52.472Z,1023.37
2018-02-26T02:49:27.705Z,1023.39
2018-02-26T02:50:08.019Z,1023.37
2018-02-26T02:50:43.259Z,1023.33
2018-02-26T02:51:21.367Z,1023.36
2018-02-26T02:52:01.207Z,1023.37
2018-02-26T02:52:36.453Z,1023.42
2018-02-26T02:53:11.600Z,1023.40
2018-02-26T02:53:50.703Z,1023.36
2018-02-26T02:54:27.225Z,1023.38
2018-02-26T02:55:02.328Z,1023.37
2018-02-26T02:55:37.780Z,1023.35
2018-02-26T02:56:13.192Z,1023.39
2018-02-26T02:56:48.598Z,1023.32
2018-02-26T02:57:24.219Z,1023.32
2018-02-26T02:57:59.210Z,1023.40
2018-02-26T02:58:36.441Z,1023.37
2018-02-26T02:59:11.836Z,1023.36
2018-02-26T02:59:47.445Z,1023.37
2018-02-26T03:00:24.569Z,1023.39
2018-02-26T03:00:59.827Z,1023.32
2018-02-26T03:01:35.461Z,1023.36
2018-02-26T03:02:11.042Z,1023.34
2018-02-26T03:02:49.518Z,1023.36
2018-02-26T03:03:29.058Z,1023.32
2018-02-26T03:04:04.780Z,1023.32
2018-02-26T03:04:40.294Z,1023.32
2018-02-26T03:05:15.717Z,1023.31
2018-02-26T03:05:54.667Z,1023.29
2018-02-26T03:06:30.176Z,1023.30
2018-02-26T03:07:05.462Z,1023.32
2018-02-26T03:07:41.502Z,1023.29
2018-02-26T03:08:21.660Z,1023.30
2018-02-26T03:08:56.880Z,1023.28
2018-02-26T03:09:31.987Z,1023.28
2018-02-26T03:10:07.168Z,1023.29
2018-02-26T03:10:46.818Z,1023.27
2018-02-26T03:11:22.228Z,1023.30
2018-02-26T03:11:57.410Z,1023.28
2018-02-26T03:12:32.927Z,1023.30
2018-02-26T03:13:10.402Z,1023.31
2018-02-26T03:13:48.344Z,1023.32
2018-02-26T03:14:23.674Z,1023.27
2018-02-26T03:14:58.876Z,1023.29
2018-02-26T03:15:34.673Z,1023.26
2018-02-26T03:16:09.996Z,1023.28
2018-02-26T03:16:45.546Z,1023.28
2018-02-26T03:17:23.472Z,1023.26
2018-02-26T03:17:58.966Z,1023.31
2018-02-26T03:18:34.897Z,1023.32
2018-02-26T03:19:10.209Z,1023.34
2018-02-26T03:19:45.633Z,1023.27
2018-02-26T03:20:20.849Z,1023.33
2018-02-26T03:20:57.657Z,1023.34
2018-02-26T03:21:33.300Z,1023.34
2018-02-26T03:22:08.630Z,1023.39
2018-02-26T03:22:43.971Z,1023.37
2018-02-26T03:23:19.276Z,1023.35
2018-02-26T03:23:55.997Z,1023.37
2018-02-26T03:24:31.523Z,1023.34
2018-02-26T03:25:07.028Z,1023.37
2018-02-26T03:25:43.271Z,1023.39
2018-02-26T03:26:18.579Z,1023.32
2018-02-26T03:26:55.422Z,1023.36
2018-02-26T03:27:30.749Z,1023.38
2018-02-26T03:28:07.744Z,1023.38
2018-02-26T03:28:43.538Z,1023.34
2018-02-26T03:29:19.345Z,1023.35
2018-02-26T03:29:54.687Z,1023.33
2018-02-26T03:30:30.118Z,1023.34
2018-02-26T03:31:05.533Z,1023.35
2018-02-26T03:31:41.056Z,1023.32
2018-02-26T03:32:16.436Z,1023.37
2018-02-26T03:32:51.536Z,1023.35
2018-02-26T03:33:29.179Z,1023.37
2018-02-26T03:34:04.522Z,1023.34
2018-02-26T03:34:40.243Z,1023.38
2018-02-26T03:35:15.268Z,1023.36
2018-02-26T03:35:52.997Z,1023.34
2018-02-26T03:36:28.211Z,1023.30
2018-02-26T03:37:05.196Z,1023.36
2018-02-26T03:37:42.033Z,1023.34
2018-02-26T03:38:17.612Z,1023.35
2018-02-26T03:38:53.240Z,1023.37
2018-02-26T03:39:28.463Z,1023.37
2018-02-26T03:40:04.765Z,1023.32
2018-02-26T03:40:42.618Z,1023.32
2018-02-26T03:41:18.050Z,1023.30
2018-02-26T03:41:56.268Z,1023.31
2018-02-26T03:42:33.488Z,1023.34
2018-02-26T03:43:08.907Z,1023.29
2018-02-26T03:43:46.251Z,1023.31
2018-02-26T03:44:21.588Z,1023.30
2018-02-26T03:44:58.115Z,1023.29
2018-02-26T03:45:33.437Z,1023.27
2018-02-26T03:46:12.149Z,1023.31
2018-02-26T03:46:48.996Z,1023.28
2018-02-26T03:47:24.292Z,1023.31
2018-02-26T03:48:00.088Z,1023.30
2018-02-26T03:48:35.483Z,1023.29
2018-02-26T03:49:12.213Z,1023.29
2018-02-26T03:49:48.777Z,1023.31
2018-02-26T03:50:24.153Z,1023.30
2018-02-26T03:51:00.227Z,1023.32
2018-02-26T03:51:35.937Z,1023.32
2018-02-26T03:52:11.328Z,1023.26
2018-02-26T03:52:47.035Z,1023.32
2018-02-26T03:53:22.459Z,1023.34
2018-02-26T03:54:00.443Z,1023.30
2018-02-26T03:54:35.899Z,1023.36
2018-02-26T03:55:11.598Z,1023.33
2018-02-26T03:55:52.718Z,1023.30
2018-02-26T03:56:30.771Z,1023.36
2018-02-26T03:57:06.261Z,1023.38
2018-02-26T03:57:43.894Z,1023.36
2018-02-26T03:58:18.884Z,1023.36
2018-02-26T03:58:54.275Z,1023.33
2018-02-26T03:59:30.237Z,1023.36
2018-02-26T04:00:07.147Z,1023.39
2018-02-26T04:00:45.688Z,1023.39
2018-02-26T04:01:21.251Z,1023.41
2018-02-26T04:01:56.623Z,1023.37
2018-02-26T04:02:31.839Z,1023.37
2018-02-26T04:03:07.238Z,1023.40
2018-02-26T04:03:42.900Z,1023.39
2018-02-26T04:04:18.694Z,1023.45
2018-02-26T04:04:57.263Z,1023.42
2018-02-26T04:05:32.684Z,1023.39
2018-02-26T04:06:08.178Z,1023.41
2018-02-26T04:06:43.826Z,1023.40
2018-02-26T04:07:19.251Z,1023.42
2018-02-26T04:07:55.568Z,1023.38
2018-02-26T04:08:31.096Z,1023.40
2018-02-26T04:09:06.531Z,1023.45
2018-02-26T04:09:42.645Z,1023.46
2018-02-26T04:10:17.981Z,1023.38
2018-02-26T04:10:53.513Z,1023.44
2018-02-26T04:11:31.059Z,1023.40
2018-02-26T04:12:08.662Z,1023.42
2018-02-26T04:12:43.901Z,1023.46
2018-02-26T04:13:19.087Z,1023.42
2018-02-26T04:13:54.691Z,1023.44
2018-02-26T04:14:30.306Z,1023.45
2018-02-26T04:15:05.606Z,1023.48
2018-02-26T04:15:41.129Z,1023.46
2018-02-26T04:16:16.450Z,1023.52
2018-02-26T04:16:55.215Z,1023.48
2018-02-26T04:17:30.745Z,1023.50
2018-02-26T04:18:06.496Z,1023.56
2018-02-26T04:18:43.527Z,1023.52
2018-02-26T04:19:19.119Z,1023.52
2018-02-26T04:19:54.536Z,1023.56
2018-02-26T04:20:29.768Z,1023.53
2018-02-26T04:21:04.959Z,1023.51
2018-02-26T04:21:40.996Z,1023.54
2018-02-26T04:22:17.292Z,1023.51
2018-02-26T04:22:52.904Z,1023.51
2018-02-26T04:23:28.930Z,1023.52
2018-02-26T04:24:04.453Z,1023.52
2018-02-26T04:24:39.889Z,1023.52
2018-02-26T04:25:15.203Z,1023.48
2018-02-26T04:25:52.305Z,1023.47
2018-02-26T04:26:30.043Z,1023.48
2018-02-26T04:27:08.754Z,1023.47
2018-02-26T04:27:44.260Z,1023.50
2018-02-26T04:28:19.755Z,1023.49
2018-02-26T04:28:55.090Z,1023.52
2018-02-26T04:29:30.422Z,1023.49
2018-02-26T04:30:07.817Z,1023.48
2018-02-26T04:30:44.915Z,1023.47
2018-02-26T04:31:20.520Z,1023.49
2018-02-26T04:31:58.454Z,1023.48
2018-02-26T04:32:34.292Z,1023.44
2018-02-26T04:33:09.797Z,1023.48
2018-02-26T04:33:45.031Z,1023.49
2018-02-26T04:34:20.367Z,1023.53
2018-02-26T04:34:55.607Z,1023.52
2018-02-26T04:35:31.043Z,1023.56
2018-02-26T04:36:06.459Z,1023.52
2018-02-26T04:36:44.628Z,1023.51
2018-02-26T04:37:22.113Z,1023.62
2018-02-26T04:37:57.526Z,1023.56
2018-02-26T04:38:34.244Z,1023.58
2018-02-26T04:39:13.966Z,1023.58
2018-02-26T04:39:52.409Z,1023.62
2018-02-26T04:40:27.836Z,1023.61
2018-02-26T04:41:02.927Z,1023.63
2018-02-26T04:41:40.058Z,1023.64
2018-02-26T04:42:15.339Z,1023.64
2018-02-26T04:42:50.777Z,1023.62
2018-02-26T04:43:26.356Z,1023.66
2018-02-26T04:44:01.871Z,1023.67
2018-02-26T04:44:37.475Z,1023.66
2018-02-26T04:45:13.887Z,1023.68
2018-02-26T04:45:49.194Z,1023.68
2018-02-26T04:46:27.120Z,1023.68
2018-02-26T04:47:02.537Z,1023.64
2018-02-26T04:47:38.068Z,1023.63
2018-02-26T04:48:13.517Z,1023.69
2018-02-26T04:48:48.949Z,1023.61
2018-02-26T04:49:28.611Z,1023.65
2018-02-26T04:50:04.244Z,1023.64
2018-02-26T04:50:46.187Z,1023.62
2018-02-26T04:51:23.786Z,1023.65
2018-02-26T04:51:59.116Z,1023.63
2018-02-26T04:52:34.586Z,1023.61
2018-02-26T04:53:10.224Z,1023.65
2018-02-26T04:53:45.684Z,1023.58
2018-02-26T04:54:21.010Z,1023.64
2018-02-26T04:54:56.705Z,1023.58
2018-02-26T04:55:32.243Z,1023.60
2018-02-26T04:56:07.537Z,1023.61
2018-02-26T04:56:42.961Z,1023.57
2018-02-26T04:57:18.069Z,1023.56
2018-02-26T04:57:53.582Z,1023.60
2018-02-26T04:58:28.986Z,1023.64
2018-02-26T04:59:04.286Z,1023.66
2018-02-26T04:59:41.442Z,1023.60
2018-02-26T05:00:16.761Z,1023.60
2018-02-26T05:00:53.396Z,1023.59
2018-02-26T05:01:29.041Z,1023.59
2018-02-26T05:02:04.552Z,1023.63
2018-02-26T05:02:40.368Z,1023.64
2018-02-26T05:03:15.573Z,1023.58
2018-02-26T05:03:51.023Z,1023.59
2018-02-26T05:04:26.454Z,1023.53
2018-02-26T05:05:03.854Z,1023.58
2018-02-26T05:05:42.693Z,1023.57
2018-02-26T05:06:20.494Z,1023.57
2018-02-26T05:06:59.657Z,1023.57
2018-02-26T05:07:35.024Z,1023.62
2018-02-26T05:08:14.153Z,1023.51
2018-02-26T05:08:49.660Z,1023.57
2018-02-26T05:09:25.104Z,1023.59
2018-02-26T05:10:00.387Z,1023.59
2018-02-26T05:10:36.601Z,1023.60
2018-02-26T05:11:12.009Z,1023.58
2018-02-26T05:11:47.342Z,1023.62
2018-02-26T05:12:22.802Z,1023.63
2018-02-26T05:12:58.248Z,1023.59
2018-02-26T05:13:33.877Z,1023.61
2018-02-26T05:14:09.279Z,1023.65
2018-02-26T05:14:45.700Z,1023.62
2018-02-26T05:15:21.334Z,1023.61
2018-02-26T05:15:59.438Z,1023.64
2018-02-26T05:16:36.049Z,1023.62
2018-02-26T05:17:11.379Z,1023.62
2018-02-26T05:17:46.730Z,1023.59
2018-02-26T05:18:23.844Z,1023.58
2018-02-26T05:18:58.938Z,1023.61
2018-02-26T05:19:34.968Z,1023.60
2018-02-26T05:20:10.261Z,1023.61
2018-02-26T05:20:46.359Z,1023.58
2018-02-26T05:21:21.872Z,1023.50
2018-02-26T05:21:57.263Z,1023.59
2018-02-26T05:22:36.014Z,1023.59
2018-02-26T05:23:11.020Z,1023.58
2018-02-26T05:23:46.530Z,1023.58
2018-02-26T05:24:22.155Z,1023.55
2018-02-26T05:25:00.677Z,1023.55
2018-02-26T05:25:36.584Z,1023.55
2018-02-26T05:26:11.882Z,1023.52
2018-02-26T05:26:50.421Z,1023.50
2018-02-26T05:27:25.984Z,1023.52
2018-02-26T05:28:01.207Z,1023.51
2018-02-26T05:28:37.846Z,1023.53
2018-02-26T05:29:13.190Z,1023.49
2018-02-26T05:29:48.646Z,1023.52
2018-02-26T05:30:24.226Z,1023.49
2018-02-26T05:31:00.421Z,1023.56
2018-02-26T05:31:35.774Z,1023.51
2018-02-26T05:32:11.106Z,1023.51
2018-02-26T05:32:48.038Z,1023.51
2018-02-26T05:33:23.358Z,1023.57
2018-02-26T05:33:58.894Z,1023.55
2018-02-26T05:34:34.334Z,1023.59
2018-02-26T05:35:09.731Z,1023.55
2018-02-26T05:35:50.199Z,1023.53
2018-02-26T05:36:25.724Z,1023.53
2018-02-26T05:37:01.059Z,1023.53
2018-02-26T05:37:37.099Z,1023.49
2018-02-26T05:38:12.421Z,1023.53
2018-02-26T05:38:48.056Z,1023.55
2018-02-26T05:39:23.480Z,1023.54
2018-02-26T05:40:01.631Z,1023.56
2018-02-26T05:40:38.176Z,1023.53
2018-02-26T05:41:13.504Z,1023.57
2018-02-26T05:41:48.760Z,1023.59
2018-02-26T05:42:24.007Z,1023.57
2018-02-26T05:42:59.222Z,1023.56
2018-02-26T05:43:34.585Z,1023.58
2018-02-26T05:44:09.989Z,1023.57
2018-02-26T05:44:45.506Z,1023.59
2018-02-26T05:45:22.117Z,1023.57
2018-02-26T05:45:59.231Z,1023.57
2018-02-26T05:46:35.375Z,1023.57
2018-02-26T05:47:13.382Z,1023.57
2018-02-26T05:47:50.354Z,1023.60
2018-02-26T05:48:28.704Z,1023.56
2018-02-26T05:49:03.510Z,1023.59
2018-02-26T05:49:42.735Z,1023.61
2018-02-26T05:50:18.038Z,1023.58
2018-02-26T05:50:58.379Z,1023.59
2018-02-26T05:51:33.401Z,1023.62
2018-02-26T05:52:08.598Z,1023.58
2018-02-26T05:52:44.275Z,1023.64
2018-02-26T05:53:19.871Z,1023.61
2018-02-26T05:53:55.391Z,1023.61
2018-02-26T05:54:30.792Z,1023.59
2018-02-26T05:55:05.990Z,1023.62
2018-02-26T05:55:42.838Z,1023.55
2018-02-26T05:56:21.443Z,1023.60
2018-02-26T05:56:59.850Z,1023.58
2018-02-26T05:57:38.383Z,1023.56
2018-02-26T05:58:13.485Z,1023.55
2018-02-26T05:58:52.210Z,1023.57
2018-02-26T05:59:27.621Z,1023.59
2018-02-26T06:00:03.035Z,1023.56
2018-02-26T06:00:43.110Z,1023.58
2018-02-26T06:01:18.506Z,1023.58
2018-02-26T06:02:00.924Z,1023.62
2018-02-26T06:02:36.426Z,1023.64
2018-02-26T06:03:11.698Z,1023.62
2018-02-26T06:03:50.726Z,1023.61
2018-02-26T06:04:26.044Z,1023.63
2018-02-26T06:05:01.688Z,1023.59
2018-02-26T06:05:41.111Z,1023.61
2018-02-26T06:06:16.398Z,1023.62
2018-02-26T06:06:55.230Z,1023.65
2018-02-26T06:07:34.379Z,1023.60
2018-02-26T06:08:12.397Z,1023.64
2018-02-26T06:08:47.929Z,1023.61
2018-02-26T06:09:23.964Z,1023.65
2018-02-26T06:09:59.193Z,1023.64
2018-02-26T06:10:37.916Z,1023.58
2018-02-26T06:11:17.657Z,1023.62
2018-02-26T06:11:53.289Z,1023.60
2018-02-26T06:12:31.034Z,1023.62
2018-02-26T06:13:12.674Z,1023.65
2018-02-26T06:13:48.109Z,1023.65
2018-02-26T06:14:25.869Z,1023.69
2018-02-26T06:15:04.292Z,1023.64
2018-02-26T06:15:41.706Z,1023.69
2018-02-26T06:16:17.024Z,1023.71
2018-02-26T06:16:52.552Z,1023.76
2018-02-26T06:17:30.668Z,1023.69
2018-02-26T06:18:05.869Z,1023.69
2018-02-26T06:18:44.918Z,1023.60
2018-02-26T06:19:20.536Z,1023.68
2018-02-26T06:19:59.452Z,1023.67
2018-02-26T06:20:39.120Z,1023.74
2018-02-26T06:21:18.760Z,1023.70
2018-02-26T06:21:53.961Z,1023.66
2018-02-26T06:22:29.286Z,1023.69
2018-02-26T06:23:07.704Z,1023.70
2018-02-26T06:23:47.246Z,1023.69
2018-02-26T06:24:22.579Z,1023.73
2018-02-26T06:25:01.690Z,1023.72
2018-02-26T06:25:42.648Z,1023.72
2018-02-26T06:26:24.157Z,1023.72
2018-02-26T06:27:06.350Z,1023.76
2018-02-26T06:27:44.574Z,1023.74
2018-02-26T06:28:19.848Z,1023.73
2018-02-26T06:28:55.450Z,1023.78
2018-02-26T06:29:34.212Z,1023.76
2018-02-26T06:30:09.643Z,1023.81
2018-02-26T06:30:47.180Z,1023.75
2018-02-26T06:31:22.832Z,1023.81
2018-02-26T06:31:58.266Z,1023.79
2018-02-26T06:32:37.804Z,1023.82
2018-02-26T06:33:17.398Z,1023.73
2018-02-26T06:33:53.998Z,1023.75
2018-02-26T06:34:29.947Z,1023.76
2018-02-26T06:35:06.975Z,1023.83
2018-02-26T06:35:43.444Z,1023.78
2018-02-26T06:36:19.070Z,1023.80
2018-02-26T06:36:56.807Z,1023.80
2018-02-26T06:37:36.068Z,1023.82
2018-02-26T06:38:14.784Z,1023.76
2018-02-26T06:40:55.856Z,1023.80
2018-02-26T06:41:31.600Z,1023.75
2018-02-26T06:42:10.324Z,1023.81
2018-02-26T06:42:48.135Z,1023.82
2018-02-26T06:43:23.715Z,1023.80
2018-02-26T06:43:59.146Z,1023.85
2018-02-26T06:44:37.704Z,1023.83
2018-02-26T06:45:18.202Z,1023.76
2018-02-26T06:45:59.912Z,1023.87
2018-02-26T06:46:41.762Z,1023.80
2018-02-26T06:47:23.411Z,1023.87
2018-02-26T06:48:03.935Z,1023.82
2018-02-26T06:48:45.520Z,1023.82
2018-02-26T06:49:26.159Z,1023.81
2018-02-26T06:50:05.000Z,1023.85
2018-02-26T06:50:42.648Z,1023.81
2018-02-26T06:51:20.655Z,1023.84
2018-02-26T06:51:58.613Z,1023.85
2018-02-26T06:52:35.314Z,1023.85
2018-02-26T06:53:17.234Z,1023.83
2018-02-26T06:53:59.282Z,1023.86
2018-02-26T06:54:35.509Z,1023.87
2018-02-26T06:55:12.096Z,1023.74
2018-02-26T06:55:53.634Z,1023.87
2018-02-26T06:56:29.251Z,1023.87
2018-02-26T06:57:04.467Z,1023.84
2018-02-26T06:57:39.892Z,1023.87
2018-02-26T06:58:15.142Z,1023.91
2018-02-26T06:58:50.636Z,1023.90
2018-02-26T06:59:25.774Z,1023.90
2018-02-26T07:00:01.334Z,1023.90
2018-02-26T07:00:39.659Z,1023.83
2018-02-26T07:01:15.058Z,1023.88
2018-02-26T07:01:50.212Z,1023.89
2018-02-26T07:02:25.645Z,1023.89
2018-02-26T07:03:01.770Z,1023.90
2018-02-26T07:03:37.538Z,1023.88
2018-02-26T07:04:12.861Z,1023.89
2018-02-26T07:04:48.291Z,1023.91
2018-02-26T07:05:23.726Z,1023.92
2018-02-26T07:06:05.438Z,1023.94
2018-02-26T07:06:40.772Z,1023.91
2018-02-26T07:07:16.963Z,1023.91
2018-02-26T07:07:52.183Z,1023.90
2018-02-26T07:08:27.721Z,1023.95
2018-02-26T07:09:03.105Z,1023.97
2018-02-26T07:09:38.842Z,1023.93
2018-02-26T07:10:14.434Z,1023.92
2018-02-26T07:10:49.784Z,1023.92
2018-02-26T07:11:25.338Z,1023.97
2018-02-26T07:12:01.148Z,1023.94
2018-02-26T07:12:36.390Z,1023.95
2018-02-26T07:13:11.691Z,1023.91
2018-02-26T07:13:47.048Z,1023.94
2018-02-26T07:14:22.582Z,1023.90
2018-02-26T07:14:57.994Z,1023.91
2018-02-26T07:15:33.339Z,1023.93
2018-02-26T07:16:08.845Z,1023.96
2018-02-26T07:16:44.871Z,1023.93
2018-02-26T07:17:20.186Z,1023.92
2018-02-26T07:17:55.743Z,1023.93
2018-02-26T07:18:31.634Z,1023.88
2018-02-26T07:19:07.134Z,1023.87
2018-02-26T07:19:42.394Z,1023.90
2018-02-26T07:20:17.736Z,1023.91
2018-02-26T07:20:54.766Z,1023.87
2018-02-26T07:21:30.077Z,1023.83
2018-02-26T07:22:05.495Z,1023.86
2018-02-26T07:22:42.316Z,1023.92
2018-02-26T07:23:17.334Z,1023.95
2018-02-26T07:23:52.730Z,1023.91
2018-02-26T07:24:28.308Z,1023.93